Time,TemperatureF,DewpointF,PressureIn,WindDirection,WindDirectionDegrees,WindSpeedMPH,WindSpeedGustMPH,Humidity,HourlyPrecipIn,Conditions,Clouds,dailyrainin,SoftwareType,DateUTC
2013-09-12 00:01:00,77.8,70.3,30.00,South,180,0.0,1.1,78,0.00,,,0.68,WUHU216HW,2013-09-12 04:01:00,
2013-09-12 00:02:00,77.8,70.3,30.00,South,180,0.0,1.1,78,0.00,,,0.00,WUHU216HW,2013-09-12 04:02:00,
2013-09-12 00:03:00,77.8,70.3,30.00,South,180,0.0,1.1,78,0.00,,,0.00,WUHU216HW,2013-09-12 04:03:00,
2013-09-12 00:08:00,77.9,70.5,30.00,SSW,203,0.0,0.4,78,0.00,,,0.00,WUHU216HW,2013-09-12 04:08:00,
2013-09-12 00:13:00,77.9,70.5,29.99,West,270,0.0,0.2,78,0.00,,,0.00,WUHU216HW,2013-09-12 04:13:00,
2013-09-12 00:18:00,78.1,70.7,29.99,WSW,248,0.0,0.2,78,0.00,,,0.00,WUHU216HW,2013-09-12 04:18:00,
2013-09-12 00:23:00,78.1,70.7,29.99,WSW,248,0.0,0.2,78,0.00,,,0.00,WUHU216HW,2013-09-12 04:23:00,
2013-09-12 00:28:00,78.1,70.7,29.99,WSW,248,0.0,0.0,78,0.00,,,0.00,WUHU216HW,2013-09-12 04:28:00,
2013-09-12 00:33:00,78.1,70.7,29.99,WSW,248,0.0,0.0,78,0.00,,,0.00,WUHU216HW,2013-09-12 04:33:00,
2013-09-12 00:38:00,78.1,70.7,29.99,WSW,248,0.0,0.0,78,0.00,,,0.00,WUHU216HW,2013-09-12 04:38:00,
2013-09-12 00:43:00,77.9,70.5,29.99,SW,225,0.0,0.0,78,0.00,,,0.00,WUHU216HW,2013-09-12 04:43:00,
2013-09-12 00:48:00,77.9,70.5,29.99,SSW,203,0.4,0.4,78,0.00,,,0.00,WUHU216HW,2013-09-12 04:48:00,
2013-09-12 00:54:00,77.9,70.5,29.98,SSW,203,0.0,0.4,78,0.00,,,0.00,WUHU216HW,2013-09-12 04:54:00,
2013-09-12 00:59:00,77.9,70.5,29.98,ENE,68,0.7,0.9,78,0.00,,,0.00,WUHU216HW,2013-09-12 04:59:00,
2013-09-12 01:04:00,77.9,70.5,29.97,East,90,0.0,0.9,78,0.00,,,0.00,WUHU216HW,2013-09-12 05:04:00,
2013-09-12 01:09:00,77.9,70.5,29.97,SE,135,0.2,0.9,78,0.00,,,0.00,WUHU216HW,2013-09-12 05:09:00,
2013-09-12 01:14:00,77.8,70.3,29.97,SE,135,0.2,0.4,78,0.00,,,0.00,WUHU216HW,2013-09-12 05:14:00,
2013-09-12 01:19:00,77.9,70.5,29.96,SE,135,0.0,0.4,78,0.00,,,0.00,WUHU216HW,2013-09-12 05:19:00,
2013-09-12 01:24:00,77.9,70.5,29.96,SE,135,0.0,0.4,78,0.00,,,0.00,WUHU216HW,2013-09-12 05:24:00,
2013-09-12 01:29:00,77.9,70.5,29.96,SE,135,0.0,0.0,78,0.00,,,0.00,WUHU216HW,2013-09-12 05:29:00,
2013-09-12 01:34:00,77.9,70.5,29.96,SE,135,0.0,0.0,78,0.00,,,0.00,WUHU216HW,2013-09-12 05:34:00,
2013-09-12 01:39:00,77.9,70.5,29.96,ENE,68,0.7,0.7,78,0.00,,,0.00,WUHU216HW,2013-09-12 05:39:00,
2013-09-12 01:44:00,77.8,70.3,29.96,ENE,68,0.0,0.7,78,0.00,,,0.00,WUHU216HW,2013-09-12 05:44:00,
2013-09-12 01:50:00,77.8,70.3,29.96,SE,135,0.4,0.4,78,0.04,,,0.03,WUHU216HW,2013-09-12 05:50:00,
2013-09-12 01:55:00,77.8,69.9,29.96,SE,135,0.0,0.4,77,0.09,,,0.08,WUHU216HW,2013-09-12 05:55:00,
2013-09-12 02:00:00,77.9,70.1,29.96,SE,135,1.1,1.1,77,0.10,,,0.10,WUHU216HW,2013-09-12 06:00:00,
2013-09-12 02:05:00,77.8,69.9,29.96,NW,315,0.7,1.8,77,0.11,,,0.11,WUHU216HW,2013-09-12 06:05:00,
2013-09-12 02:10:00,77.8,69.6,29.96,WNW,293,0.0,1.8,76,0.11,,,0.11,WUHU216HW,2013-09-12 06:10:00,
2013-09-12 02:15:00,77.8,69.6,29.96,WNW,293,0.2,1.1,76,0.11,,,0.11,WUHU216HW,2013-09-12 06:15:00,
2013-09-12 02:20:00,77.8,69.6,29.97,South,180,0.4,0.4,76,0.11,,,0.11,WUHU216HW,2013-09-12 06:20:00,
2013-09-12 02:25:00,77.6,69.4,29.96,South,180,0.0,0.4,76,0.11,,,0.11,WUHU216HW,2013-09-12 06:25:00,
2013-09-12 02:27:00,77.6,69.4,29.97,South,180,0.4,0.4,76,0.11,,,0.11,WUHU216HW,2013-09-12 06:27:00,
2013-09-12 02:30:00,77.6,69.4,29.97,South,180,0.4,0.4,76,0.11,,,0.11,WUHU216HW,2013-09-12 06:30:00,
2013-09-12 02:35:00,77.6,69.4,29.97,South,180,0.4,0.4,76,0.11,,,0.11,WUHU216HW,2013-09-12 06:35:00,
2013-09-12 02:57:00,77.6,69.0,29.96,South,180,0.0,0.0,75,0.02,,,0.11,WUHU216HW,2013-09-12 06:57:00,
2013-09-12 03:02:00,77.8,69.2,29.95,WSW,248,0.0,0.0,75,0.01,,,0.13,WUHU216HW,2013-09-12 07:02:00,
2013-09-12 03:07:00,77.6,69.0,29.95,WSW,248,0.0,0.4,75,0.01,,,0.13,WUHU216HW,2013-09-12 07:07:00,
2013-09-12 03:12:00,77.6,69.0,29.95,WSW,248,0.0,0.4,75,0.01,,,0.13,WUHU216HW,2013-09-12 07:12:00,
2013-09-12 03:17:00,77.6,69.0,29.95,WSW,248,0.0,0.4,75,0.01,,,0.13,WUHU216HW,2013-09-12 07:17:00,
2013-09-12 03:22:00,77.6,69.0,29.95,WSW,248,0.0,0.4,75,0.01,,,0.13,WUHU216HW,2013-09-12 07:22:00,
2013-09-12 03:28:00,77.6,69.0,29.94,WSW,248,0.0,0.0,75,0.01,,,0.13,WUHU216HW,2013-09-12 07:28:00,
2013-09-12 03:33:00,77.6,69.0,29.94,WSW,248,0.0,0.0,75,0.00,,,0.13,WUHU216HW,2013-09-12 07:33:00,
2013-09-12 03:38:00,77.6,69.0,29.95,WSW,248,0.4,0.7,75,0.00,,,0.13,WUHU216HW,2013-09-12 07:38:00,
2013-09-12 03:43:00,77.4,68.9,29.94,NE,45,0.0,0.7,75,0.00,,,0.13,WUHU216HW,2013-09-12 07:43:00,
2013-09-12 03:48:00,77.4,68.9,29.94,ENE,68,0.2,0.4,75,0.00,,,0.13,WUHU216HW,2013-09-12 07:48:00,
2013-09-12 03:53:00,77.4,68.9,29.94,ENE,68,0.4,0.4,75,0.00,,,0.13,WUHU216HW,2013-09-12 07:53:00,
2013-09-12 03:58:00,77.4,68.9,29.94,ENE,68,0.0,0.9,75,0.00,,,0.13,WUHU216HW,2013-09-12 07:58:00,
2013-09-12 04:03:00,77.4,68.9,29.94,NNE,23,0.0,0.9,75,0.00,,,0.13,WUHU216HW,2013-09-12 08:03:00,
2013-09-12 04:08:00,77.4,68.9,29.94,NNE,23,0.0,0.7,75,0.00,,,0.13,WUHU216HW,2013-09-12 08:08:00,
2013-09-12 04:14:00,77.4,68.9,29.94,NNE,23,0.2,0.4,75,0.00,,,0.13,WUHU216HW,2013-09-12 08:14:00,
2013-09-12 04:19:00,77.4,68.9,29.94,East,90,0.0,0.4,75,0.00,,,0.13,WUHU216HW,2013-09-12 08:19:00,
2013-09-12 04:24:00,77.4,68.9,29.94,North,0,0.0,0.2,75,0.00,,,0.13,WUHU216HW,2013-09-12 08:24:00,
2013-09-12 04:29:00,77.4,68.9,29.94,North,0,0.0,0.2,75,0.00,,,0.13,WUHU216HW,2013-09-12 08:29:00,
2013-09-12 04:34:00,77.4,68.9,29.94,North,0,0.2,0.2,75,0.00,,,0.13,WUHU216HW,2013-09-12 08:34:00,
2013-09-12 04:39:00,77.4,68.5,29.94,North,0,0.0,0.2,74,0.00,,,0.13,WUHU216HW,2013-09-12 08:39:00,
2013-09-12 04:44:00,77.4,68.5,29.94,North,0,0.0,0.2,74,0.00,,,0.13,WUHU216HW,2013-09-12 08:44:00,
2013-09-12 04:49:00,77.4,68.5,29.94,North,0,0.0,0.0,74,0.00,,,0.13,WUHU216HW,2013-09-12 08:49:00,
2013-09-12 04:54:00,77.4,68.5,29.94,North,0,0.2,0.2,74,0.00,,,0.13,WUHU216HW,2013-09-12 08:54:00,
2013-09-12 04:59:00,77.4,68.5,29.94,North,0,0.0,0.4,74,0.00,,,0.13,WUHU216HW,2013-09-12 08:59:00,
2013-09-12 05:04:00,77.2,68.3,29.94,North,0,0.0,0.4,74,0.00,,,0.13,WUHU216HW,2013-09-12 09:04:00,
2013-09-12 05:10:00,77.2,68.3,29.94,North,0,0.0,0.0,74,0.00,,,0.13,WUHU216HW,2013-09-12 09:10:00,
2013-09-12 05:15:00,77.2,68.3,29.94,North,0,0.0,0.0,74,0.00,,,0.13,WUHU216HW,2013-09-12 09:15:00,
2013-09-12 05:20:00,77.2,68.3,29.94,North,0,0.0,0.0,74,0.00,,,0.13,WUHU216HW,2013-09-12 09:20:00,
2013-09-12 05:25:00,77.2,68.3,29.94,North,0,0.0,0.0,74,0.00,,,0.13,WUHU216HW,2013-09-12 09:25:00,
2013-09-12 05:30:00,77.2,68.3,29.94,North,0,0.0,0.0,74,0.00,,,0.13,WUHU216HW,2013-09-12 09:30:00,
2013-09-12 05:35:00,77.0,68.1,29.93,North,0,0.0,0.0,74,0.00,,,0.13,WUHU216HW,2013-09-12 09:35:00,
2013-09-12 05:40:00,77.0,68.1,29.94,North,0,0.4,0.4,74,0.00,,,0.13,WUHU216HW,2013-09-12 09:40:00,
2013-09-12 05:45:00,77.0,68.1,29.93,ENE,68,0.4,0.4,74,0.00,,,0.13,WUHU216HW,2013-09-12 09:45:00,
2013-09-12 05:50:00,77.0,68.1,29.93,East,90,0.2,0.4,74,0.00,,,0.13,WUHU216HW,2013-09-12 09:50:00,
2013-09-12 05:55:00,76.9,68.0,29.94,East,90,0.2,0.4,74,0.00,,,0.13,WUHU216HW,2013-09-12 09:55:00,
2013-09-12 06:00:00,77.0,68.1,29.94,East,90,0.2,0.7,74,0.00,,,0.13,WUHU216HW,2013-09-12 10:00:00,
2013-09-12 06:05:00,76.9,68.0,29.94,ENE,68,0.4,0.7,74,0.00,,,0.13,WUHU216HW,2013-09-12 10:05:00,
2013-09-12 06:10:00,76.9,68.0,29.94,ENE,68,0.2,0.9,74,0.00,,,0.13,WUHU216HW,2013-09-12 10:10:00,
2013-09-12 06:15:00,76.9,68.0,29.94,East,90,0.4,1.1,74,0.00,,,0.13,WUHU216HW,2013-09-12 10:15:00,
2013-09-12 06:20:00,76.9,68.0,29.94,ENE,68,0.7,1.1,74,0.00,,,0.13,WUHU216HW,2013-09-12 10:20:00,
2013-09-12 06:25:00,76.9,68.0,29.94,ENE,68,0.0,0.7,74,0.00,,,0.13,WUHU216HW,2013-09-12 10:25:00,
2013-09-12 06:31:00,76.9,68.0,29.94,ENE,68,0.0,0.2,74,0.00,,,0.13,WUHU216HW,2013-09-12 10:31:00,
2013-09-12 06:36:00,76.9,68.0,29.94,ENE,68,0.0,0.0,74,0.00,,,0.13,WUHU216HW,2013-09-12 10:36:00,
2013-09-12 06:41:00,76.9,68.0,29.94,ENE,68,0.0,0.2,74,0.00,,,0.13,WUHU216HW,2013-09-12 10:41:00,
2013-09-12 06:46:00,76.9,68.0,29.95,ENE,68,0.2,0.4,74,0.00,,,0.13,WUHU216HW,2013-09-12 10:46:00,
2013-09-12 06:51:00,76.9,68.0,29.95,ENE,68,0.2,0.4,74,0.00,,,0.13,WUHU216HW,2013-09-12 10:51:00,
2013-09-12 06:56:00,76.9,68.0,29.95,East,90,0.2,0.7,74,0.00,,,0.13,WUHU216HW,2013-09-12 10:56:00,
2013-09-12 07:01:00,76.9,67.6,29.95,NE,45,0.4,0.9,73,0.00,,,0.13,WUHU216HW,2013-09-12 11:01:00,
2013-09-12 07:06:00,76.9,67.6,29.95,ESE,113,0.7,1.1,73,0.00,,,0.13,WUHU216HW,2013-09-12 11:06:00,
2013-09-12 07:11:00,76.9,67.6,29.95,ESE,113,1.1,1.3,73,0.00,,,0.13,WUHU216HW,2013-09-12 11:11:00,
2013-09-12 07:16:00,76.7,67.4,29.95,ESE,113,0.4,1.8,73,0.00,,,0.13,WUHU216HW,2013-09-12 11:16:00,
2013-09-12 07:21:00,76.7,67.4,29.95,ESE,113,1.6,1.8,73,0.00,,,0.13,WUHU216HW,2013-09-12 11:21:00,
2013-09-12 07:26:00,76.7,67.8,29.95,ESE,113,0.9,1.6,74,0.00,,,0.13,WUHU216HW,2013-09-12 11:26:00,
2013-09-12 07:31:00,76.7,67.4,29.95,ESE,113,1.1,1.8,73,0.00,,,0.13,WUHU216HW,2013-09-12 11:31:00,
2013-09-12 07:36:00,76.7,67.4,29.95,ESE,113,0.7,1.8,73,0.00,,,0.13,WUHU216HW,2013-09-12 11:36:00,
2013-09-12 07:41:00,76.7,67.4,29.95,ENE,68,1.1,1.3,73,0.00,,,0.13,WUHU216HW,2013-09-12 11:41:00,
2013-09-12 07:46:00,76.7,67.4,29.95,East,90,3.4,3.4,73,0.00,,,0.13,WUHU216HW,2013-09-12 11:46:00,
2013-09-12 07:52:00,76.7,67.4,29.95,SE,135,1.8,3.4,73,0.00,,,0.13,WUHU216HW,2013-09-12 11:52:00,
2013-09-12 07:57:00,76.7,67.4,29.95,ESE,113,2.2,2.5,73,0.00,,,0.13,WUHU216HW,2013-09-12 11:57:00,
2013-09-12 08:02:00,76.7,67.4,29.95,SE,135,0.7,2.2,73,0.00,,,0.13,WUHU216HW,2013-09-12 12:02:00,
2013-09-12 08:07:00,76.9,67.6,29.95,ESE,113,1.8,2.2,73,0.00,,,0.13,WUHU216HW,2013-09-12 12:07:00,
2013-09-12 08:12:00,77.0,67.8,29.96,ESE,113,1.1,2.2,73,0.00,,,0.13,WUHU216HW,2013-09-12 12:12:00,
2013-09-12 08:17:00,77.0,67.3,29.96,East,90,0.0,1.8,72,0.00,,,0.13,WUHU216HW,2013-09-12 12:17:00,
2013-09-12 08:22:00,77.0,67.3,29.96,East,90,0.2,1.8,72,0.00,,,0.13,WUHU216HW,2013-09-12 12:22:00,
2013-09-12 08:27:00,77.0,67.3,29.96,ESE,113,0.0,1.3,72,0.00,,,0.13,WUHU216HW,2013-09-12 12:27:00,
2013-09-12 08:32:00,77.2,67.5,29.96,ESE,113,0.2,1.3,72,0.00,,,0.13,WUHU216HW,2013-09-12 12:32:00,
2013-09-12 08:37:00,77.2,67.5,29.97,ENE,68,0.0,1.1,72,0.00,,,0.13,WUHU216HW,2013-09-12 12:37:00,
2013-09-12 08:42:00,77.2,67.5,29.97,East,90,0.2,1.1,72,0.00,,,0.13,WUHU216HW,2013-09-12 12:42:00,
2013-09-12 08:47:00,77.4,67.7,29.97,East,90,0.4,0.4,72,0.00,,,0.13,WUHU216HW,2013-09-12 12:47:00,
2013-09-12 08:52:00,77.4,67.7,29.97,NE,45,0.9,0.9,72,0.00,,,0.13,WUHU216HW,2013-09-12 12:52:00,
2013-09-12 08:57:00,77.4,67.7,29.98,ENE,68,0.2,0.9,72,0.00,,,0.13,WUHU216HW,2013-09-12 12:57:00,
2013-09-12 09:02:00,77.4,67.7,29.98,ESE,113,2.2,2.2,72,0.00,,,0.13,WUHU216HW,2013-09-12 13:02:00,
2013-09-12 09:07:00,77.6,67.9,29.98,ESE,113,2.0,2.5,72,0.00,,,0.13,WUHU216HW,2013-09-12 13:07:00,
2013-09-12 09:13:00,77.8,68.1,29.98,ENE,68,0.0,2.5,72,0.00,,,0.13,WUHU216HW,2013-09-12 13:13:00,
2013-09-12 09:18:00,77.8,67.6,29.98,ENE,68,0.7,1.1,71,0.00,,,0.13,WUHU216HW,2013-09-12 13:18:00,
2013-09-12 09:23:00,77.9,67.8,29.98,NW,315,1.1,1.1,71,0.00,,,0.13,WUHU216HW,2013-09-12 13:23:00,
2013-09-12 09:28:00,77.9,67.8,29.99,NNW,338,0.7,1.1,71,0.00,,,0.13,WUHU216HW,2013-09-12 13:28:00,
2013-09-12 09:33:00,77.9,68.2,29.99,North,0,0.0,0.7,72,0.00,,,0.13,WUHU216HW,2013-09-12 13:33:00,
2013-09-12 09:38:00,77.9,68.2,29.99,NE,45,1.3,1.3,72,0.00,,,0.13,WUHU216HW,2013-09-12 13:38:00,
2013-09-12 09:43:00,77.9,68.2,29.98,ENE,68,0.0,1.3,72,0.00,,,0.13,WUHU216HW,2013-09-12 13:43:00,
2013-09-12 09:48:00,78.1,68.3,29.98,ENE,68,0.4,0.9,72,0.00,,,0.13,WUHU216HW,2013-09-12 13:48:00,
2013-09-12 09:53:00,77.9,68.2,29.98,ESE,113,1.6,1.6,72,0.00,,,0.13,WUHU216HW,2013-09-12 13:53:00,
2013-09-12 09:58:00,78.1,68.3,29.98,ESE,113,1.1,1.6,72,0.00,,,0.13,WUHU216HW,2013-09-12 13:58:00,
2013-09-12 10:03:00,78.1,68.3,29.98,East,90,0.2,2.0,72,0.00,,,0.13,WUHU216HW,2013-09-12 14:03:00,
2013-09-12 10:08:00,78.3,68.5,29.98,ESE,113,1.6,2.0,72,0.00,,,0.13,WUHU216HW,2013-09-12 14:08:00,
2013-09-12 10:13:00,78.5,68.7,29.98,East,90,0.2,1.6,72,0.00,,,0.13,WUHU216HW,2013-09-12 14:13:00,
2013-09-12 10:19:00,78.7,69.2,29.99,East,90,0.9,1.6,73,0.00,,,0.13,WUHU216HW,2013-09-12 14:19:00,
2013-09-12 10:24:00,78.7,69.7,29.98,ESE,113,0.4,0.9,74,0.00,,,0.13,WUHU216HW,2013-09-12 14:24:00,
2013-09-12 10:29:00,78.8,69.9,29.98,SE,135,2.0,2.0,74,0.00,,,0.13,WUHU216HW,2013-09-12 14:29:00,
2013-09-12 10:34:00,79.0,70.0,29.98,ESE,113,0.9,2.0,74,0.00,,,0.13,WUHU216HW,2013-09-12 14:34:00,
2013-09-12 10:39:00,79.2,70.2,29.98,ESE,113,1.6,1.6,74,0.00,,,0.13,WUHU216HW,2013-09-12 14:39:00,
2013-09-12 10:44:00,79.4,70.4,29.98,ESE,113,1.1,2.7,74,0.00,,,0.13,WUHU216HW,2013-09-12 14:44:00,
2013-09-12 10:49:00,79.4,70.4,29.98,ESE,113,0.2,2.7,74,0.00,,,0.13,WUHU216HW,2013-09-12 14:49:00,
2013-09-12 10:54:00,79.6,70.6,29.98,SE,135,0.4,2.0,74,0.00,,,0.13,WUHU216HW,2013-09-12 14:54:00,
2013-09-12 10:59:00,79.7,71.1,29.98,ESE,113,1.8,2.0,75,0.00,,,0.13,WUHU216HW,2013-09-12 14:59:00,
2013-09-12 11:05:00,79.9,71.3,29.98,ESE,113,0.0,1.8,75,0.00,,,0.13,WUHU216HW,2013-09-12 15:05:00,
2013-09-12 11:10:00,80.3,71.6,29.97,East,90,3.4,3.4,75,0.00,,,0.13,WUHU216HW,2013-09-12 15:10:00,
2013-09-12 11:15:00,80.6,72.0,29.98,ESE,113,2.2,3.4,75,0.00,,,0.13,WUHU216HW,2013-09-12 15:15:00,
2013-09-12 11:20:00,81.2,72.9,29.97,East,90,2.7,2.9,76,0.00,,,0.13,WUHU216HW,2013-09-12 15:20:00,
2013-09-12 11:25:00,81.5,73.3,29.97,ENE,68,1.1,2.7,76,0.00,,,0.13,WUHU216HW,2013-09-12 15:25:00,
2013-09-12 11:30:00,81.7,73.8,29.97,ESE,113,2.5,2.5,77,0.00,,,0.13,WUHU216HW,2013-09-12 15:30:00,
2013-09-12 11:35:00,82.1,74.6,29.97,SE,135,0.0,3.4,78,0.00,,,0.13,WUHU216HW,2013-09-12 15:35:00,
2013-09-12 11:40:00,82.1,74.6,29.97,East,90,1.8,3.4,78,0.00,,,0.13,WUHU216HW,2013-09-12 15:40:00,
2013-09-12 11:45:00,82.3,74.8,29.97,ESE,113,1.3,3.8,78,0.00,,,0.13,WUHU216HW,2013-09-12 15:45:00,
2013-09-12 11:50:00,82.4,75.0,29.97,ESE,113,1.6,3.8,78,0.00,,,0.13,WUHU216HW,2013-09-12 15:50:00,
2013-09-12 11:55:00,83.0,75.4,29.97,ENE,68,2.5,2.5,78,0.00,,,0.13,WUHU216HW,2013-09-12 15:55:00,
2013-09-12 12:00:00,83.3,76.2,29.97,SE,135,2.7,2.7,79,0.00,,,0.13,WUHU216HW,2013-09-12 16:00:00,
2013-09-12 12:05:00,83.9,76.3,29.96,SE,135,2.2,4.0,78,0.00,,,0.13,WUHU216HW,2013-09-12 16:05:00,
2013-09-12 12:11:00,84.2,76.6,29.97,ESE,113,0.9,4.0,78,0.00,,,0.13,WUHU216HW,2013-09-12 16:11:00,
2013-09-12 12:16:00,84.4,76.4,29.96,ESE,113,2.2,4.0,77,0.00,,,0.13,WUHU216HW,2013-09-12 16:16:00,
2013-09-12 12:21:00,84.6,77.0,29.96,SE,135,5.4,5.4,78,0.00,,,0.13,WUHU216HW,2013-09-12 16:21:00,
2013-09-12 12:26:00,84.6,77.0,29.96,East,90,1.8,5.4,78,0.00,,,0.13,WUHU216HW,2013-09-12 16:26:00,
2013-09-12 12:31:00,84.6,77.0,29.96,ESE,113,0.0,3.8,78,0.00,,,0.13,WUHU216HW,2013-09-12 16:31:00,
2013-09-12 12:36:00,84.6,77.0,29.96,ESE,113,3.4,3.4,78,0.00,,,0.13,WUHU216HW,2013-09-12 16:36:00,
2013-09-12 12:41:00,84.8,77.1,29.96,NNE,23,1.1,3.4,78,0.00,,,0.13,WUHU216HW,2013-09-12 16:41:00,
2013-09-12 12:46:00,85.0,77.0,29.96,SE,135,0.9,3.4,77,0.00,,,0.13,WUHU216HW,2013-09-12 16:46:00,
2013-09-12 12:51:00,85.1,77.1,29.96,SE,135,0.4,2.7,77,0.00,,,0.13,WUHU216HW,2013-09-12 16:51:00,
2013-09-12 12:56:00,85.1,77.1,29.96,SSE,158,0.7,2.7,77,0.00,,,0.13,WUHU216HW,2013-09-12 16:56:00,
2013-09-12 13:01:00,85.1,77.1,29.95,South,180,1.1,2.7,77,0.00,,,0.13,WUHU216HW,2013-09-12 17:01:00,
2013-09-12 13:06:00,85.1,76.7,29.95,SE,135,1.6,2.5,76,0.00,,,0.13,WUHU216HW,2013-09-12 17:06:00,
2013-09-12 13:11:00,85.1,76.7,29.95,ESE,113,1.6,2.7,76,0.00,,,0.13,WUHU216HW,2013-09-12 17:11:00,
2013-09-12 13:16:00,85.1,76.7,29.95,SE,135,0.9,2.7,76,0.00,,,0.13,WUHU216HW,2013-09-12 17:16:00,
2013-09-12 13:21:00,85.3,76.9,29.95,SE,135,0.7,2.5,76,0.00,,,0.13,WUHU216HW,2013-09-12 17:21:00,
2013-09-12 13:26:00,85.3,76.9,29.95,ESE,113,2.0,2.0,76,0.00,,,0.13,WUHU216HW,2013-09-12 17:26:00,
2013-09-12 13:32:00,85.3,76.9,29.94,SE,135,1.8,2.9,76,0.00,,,0.13,WUHU216HW,2013-09-12 17:32:00,
2013-09-12 13:37:00,85.3,76.9,29.94,SSE,158,4.0,4.0,76,0.00,,,0.13,WUHU216HW,2013-09-12 17:37:00,
2013-09-12 13:42:00,85.3,76.9,29.95,SE,135,0.4,4.0,76,0.00,,,0.13,WUHU216HW,2013-09-12 17:42:00,
2013-09-12 13:47:00,85.3,76.9,29.95,SE,135,0.4,1.8,76,0.00,,,0.13,WUHU216HW,2013-09-12 17:47:00,
2013-09-12 13:52:00,85.5,77.0,29.94,SSE,158,1.8,2.0,76,0.00,,,0.13,WUHU216HW,2013-09-12 17:52:00,
2013-09-12 13:57:00,85.9,77.4,29.94,SSE,158,0.7,2.2,76,0.00,,,0.13,WUHU216HW,2013-09-12 17:57:00,
2013-09-12 14:02:00,86.2,77.8,29.94,ESE,113,1.3,2.2,76,0.00,,,0.13,WUHU216HW,2013-09-12 18:02:00,
2013-09-12 14:07:00,86.2,77.4,29.94,ESE,113,2.2,2.5,75,0.00,,,0.13,WUHU216HW,2013-09-12 18:07:00,
2013-09-12 14:12:00,86.2,77.8,29.94,SSE,158,1.1,2.9,76,0.00,,,0.13,WUHU216HW,2013-09-12 18:12:00,
2013-09-12 14:17:00,86.4,77.6,29.93,SSE,158,0.0,2.9,75,0.00,,,0.13,WUHU216HW,2013-09-12 18:17:00,
2013-09-12 14:22:00,86.4,77.1,29.93,SE,135,1.6,2.5,74,0.00,,,0.13,WUHU216HW,2013-09-12 18:22:00,
2013-09-12 14:27:00,86.4,77.1,29.93,SSE,158,1.8,2.7,74,0.00,,,0.13,WUHU216HW,2013-09-12 18:27:00,
2013-09-12 14:32:00,86.4,77.6,29.93,SE,135,1.1,2.7,75,0.00,,,0.13,WUHU216HW,2013-09-12 18:32:00,
2013-09-12 14:37:00,86.4,77.6,29.92,SSE,158,1.3,1.6,75,0.00,,,0.13,WUHU216HW,2013-09-12 18:37:00,
2013-09-12 14:42:00,86.4,77.6,29.92,SSE,158,1.1,1.8,75,0.00,,,0.13,WUHU216HW,2013-09-12 18:42:00,
2013-09-12 14:48:00,86.4,77.6,29.92,SE,135,1.3,1.8,75,0.00,,,0.13,WUHU216HW,2013-09-12 18:48:00,
2013-09-12 14:53:00,86.2,77.4,29.92,East,90,0.4,2.0,75,0.00,,,0.13,WUHU216HW,2013-09-12 18:53:00,
2013-09-12 14:58:00,86.0,77.6,29.91,SE,135,0.2,2.5,76,0.00,,,0.13,WUHU216HW,2013-09-12 18:58:00,
2013-09-12 15:03:00,86.0,77.6,29.91,SE,135,1.1,2.5,76,0.00,,,0.13,WUHU216HW,2013-09-12 19:03:00,
2013-09-12 15:08:00,86.0,77.2,29.90,SE,135,0.9,1.8,75,0.00,,,0.13,WUHU216HW,2013-09-12 19:08:00,
2013-09-12 15:13:00,85.9,77.0,29.90,SE,135,0.4,1.3,75,0.00,,,0.13,WUHU216HW,2013-09-12 19:13:00,
2013-09-12 15:18:00,86.0,77.2,29.89,SSE,158,1.1,2.5,75,0.00,,,0.13,WUHU216HW,2013-09-12 19:18:00,
2013-09-12 15:23:00,86.0,77.2,29.89,South,180,0.0,2.5,75,0.00,,,0.13,WUHU216HW,2013-09-12 19:23:00,
2013-09-12 15:28:00,86.2,77.4,29.88,South,180,0.2,2.2,75,0.00,,,0.13,WUHU216HW,2013-09-12 19:28:00,
2013-09-12 15:33:00,86.4,77.6,29.88,South,180,0.7,2.2,75,0.00,,,0.13,WUHU216HW,2013-09-12 19:33:00,
2013-09-12 15:39:00,86.4,77.6,29.87,SSW,203,0.7,1.3,75,0.00,,,0.13,WUHU216HW,2013-09-12 19:39:00,
2013-09-12 15:44:00,86.6,77.8,29.88,SSW,203,0.2,2.7,75,0.00,,,0.13,WUHU216HW,2013-09-12 19:44:00,
2013-09-12 15:49:00,86.8,78.0,29.88,South,180,0.0,2.7,75,0.00,,,0.13,WUHU216HW,2013-09-12 19:49:00,
2013-09-12 15:54:00,86.9,78.0,29.87,South,180,0.4,1.8,75,0.00,,,0.13,WUHU216HW,2013-09-12 19:54:00,
2013-09-12 15:59:00,86.9,78.0,29.87,WSW,248,1.1,1.1,75,0.00,,,0.13,WUHU216HW,2013-09-12 19:59:00,
2013-09-12 16:04:00,87.1,78.2,29.88,SW,225,0.4,1.1,75,0.00,,,0.13,WUHU216HW,2013-09-12 20:04:00,
2013-09-12 16:09:00,87.1,78.2,29.88,SW,225,0.2,1.1,75,0.00,,,0.13,WUHU216HW,2013-09-12 20:09:00,
2013-09-12 16:14:00,87.3,78.4,29.87,West,270,2.2,2.2,75,0.00,,,0.13,WUHU216HW,2013-09-12 20:14:00,
2013-09-12 16:19:00,87.5,78.2,29.87,SSE,158,1.1,2.2,74,0.00,,,0.13,WUHU216HW,2013-09-12 20:19:00,
2013-09-12 16:21:00,87.5,78.2,29.87,South,180,1.1,1.1,74,0.00,,,0.13,WUHU216HW,2013-09-12 20:21:00,
2013-09-12 16:24:00,87.5,78.2,29.87,South,180,1.1,1.1,74,0.00,,,0.13,WUHU216HW,2013-09-12 20:24:00,
2013-09-12 16:29:00,87.5,78.2,29.87,South,180,1.1,1.1,74,0.00,,,0.13,WUHU216HW,2013-09-12 20:29:00,
2013-09-12 16:51:00,86.4,77.6,29.88,SW,225,0.4,0.4,75,0.00,,,0.13,WUHU216HW,2013-09-12 20:51:00,
2013-09-12 16:56:00,86.2,77.4,29.88,WSW,248,0.2,0.7,75,0.00,,,0.13,WUHU216HW,2013-09-12 20:56:00,
2013-09-12 17:01:00,86.2,77.4,29.87,SSE,158,1.1,1.1,75,0.00,,,0.13,WUHU216HW,2013-09-12 21:01:00,
2013-09-12 17:06:00,86.2,77.4,29.87,South,180,0.4,1.1,75,0.00,,,0.13,WUHU216HW,2013-09-12 21:06:00,
2013-09-12 17:11:00,86.2,77.0,29.87,SW,225,0.2,0.7,74,0.00,,,0.13,WUHU216HW,2013-09-12 21:11:00,
2013-09-12 17:16:00,86.2,77.0,29.88,South,180,0.9,1.1,74,0.00,,,0.13,WUHU216HW,2013-09-12 21:16:00,
2013-09-12 17:22:00,86.0,76.9,29.87,SE,135,0.4,2.5,74,0.00,,,0.13,WUHU216HW,2013-09-12 21:22:00,
2013-09-12 17:27:00,85.7,76.5,29.87,SE,135,0.9,3.4,74,0.00,,,0.13,WUHU216HW,2013-09-12 21:27:00,
2013-09-12 17:32:00,85.3,76.2,29.87,SE,135,1.3,3.4,74,0.00,,,0.13,WUHU216HW,2013-09-12 21:32:00,
2013-09-12 17:37:00,85.1,76.0,29.88,SSE,158,0.7,2.5,74,0.00,,,0.13,WUHU216HW,2013-09-12 21:37:00,
2013-09-12 17:42:00,85.1,76.0,29.88,SE,135,1.8,3.6,74,0.00,,,0.13,WUHU216HW,2013-09-12 21:42:00,
2013-09-12 17:47:00,85.1,76.0,29.87,SE,135,2.0,3.6,74,0.00,,,0.13,WUHU216HW,2013-09-12 21:47:00,
2013-09-12 17:52:00,85.1,76.0,29.87,SE,135,1.1,2.0,74,0.00,,,0.13,WUHU216HW,2013-09-12 21:52:00,
2013-09-12 17:57:00,85.1,76.0,29.88,South,180,0.7,2.0,74,0.00,,,0.13,WUHU216HW,2013-09-12 21:57:00,
2013-09-12 18:02:00,85.3,76.2,29.88,SSE,158,0.0,1.8,74,0.00,,,0.13,WUHU216HW,2013-09-12 22:02:00,
2013-09-12 18:07:00,85.3,76.5,29.87,SSE,158,1.1,1.8,75,0.00,,,0.13,WUHU216HW,2013-09-12 22:07:00,
2013-09-12 18:12:00,85.1,76.3,29.87,South,180,0.0,1.8,75,0.00,,,0.13,WUHU216HW,2013-09-12 22:12:00,
2013-09-12 18:17:00,85.1,76.3,29.87,South,180,0.2,1.6,75,0.00,,,0.13,WUHU216HW,2013-09-12 22:17:00,
2013-09-12 18:22:00,85.1,76.3,29.88,South,180,0.0,0.7,75,0.00,,,0.13,WUHU216HW,2013-09-12 22:22:00,
2013-09-12 18:27:00,85.0,76.1,29.87,SSE,158,0.0,0.9,75,0.00,,,0.13,WUHU216HW,2013-09-12 22:27:00,
2013-09-12 18:32:00,85.0,76.1,29.87,SE,135,1.1,1.1,75,0.00,,,0.13,WUHU216HW,2013-09-12 22:32:00,
2013-09-12 18:37:00,84.8,75.6,29.87,SSE,158,1.6,1.8,74,0.00,,,0.13,WUHU216HW,2013-09-12 22:37:00,
2013-09-12 18:43:00,84.6,75.8,29.87,SSE,158,0.2,1.8,75,0.00,,,0.13,WUHU216HW,2013-09-12 22:43:00,
2013-09-12 18:48:00,84.6,75.8,29.87,SSE,158,0.0,0.9,75,0.00,,,0.13,WUHU216HW,2013-09-12 22:48:00,
2013-09-12 18:53:00,84.4,75.6,29.87,SSE,158,0.0,0.4,75,0.00,,,0.13,WUHU216HW,2013-09-12 22:53:00,
2013-09-12 18:58:00,84.4,75.6,29.88,SSE,158,0.0,0.4,75,0.00,,,0.13,WUHU216HW,2013-09-12 22:58:00,
2013-09-12 19:03:00,84.4,75.6,29.88,South,180,0.0,0.2,75,0.00,,,0.13,WUHU216HW,2013-09-12 23:03:00,
2013-09-12 19:08:00,84.4,75.6,29.89,South,180,0.0,0.2,75,0.00,,,0.13,WUHU216HW,2013-09-12 23:08:00,
2013-09-12 19:13:00,84.2,75.4,29.89,South,180,0.0,0.0,75,0.00,,,0.13,WUHU216HW,2013-09-12 23:13:00,
2013-09-12 19:18:00,84.2,75.8,29.89,WSW,248,0.0,0.2,76,0.00,,,0.13,WUHU216HW,2013-09-12 23:18:00,
2013-09-12 19:23:00,84.1,75.7,29.89,WSW,248,0.0,0.2,76,0.00,,,0.13,WUHU216HW,2013-09-12 23:23:00,
2013-09-12 19:28:00,83.9,75.5,29.89,WSW,248,0.0,0.0,76,0.00,,,0.13,WUHU216HW,2013-09-12 23:28:00,
2013-09-12 19:33:00,83.9,75.5,29.89,WSW,248,0.0,0.0,76,0.00,,,0.13,WUHU216HW,2013-09-12 23:33:00,
2013-09-12 19:39:00,83.7,75.3,29.89,WSW,248,0.0,0.0,76,0.00,,,0.13,WUHU216HW,2013-09-12 23:39:00,
2013-09-12 19:44:00,83.5,75.5,29.89,WSW,248,0.4,0.4,77,0.00,,,0.13,WUHU216HW,2013-09-12 23:44:00,
2013-09-12 19:49:00,83.3,75.3,29.89,WSW,248,0.0,0.4,77,0.00,,,0.13,WUHU216HW,2013-09-12 23:49:00,
2013-09-12 19:54:00,83.2,75.3,29.89,WSW,248,0.0,0.4,77,0.00,,,0.13,WUHU216HW,2013-09-12 23:54:00,
2013-09-12 19:59:00,83.0,75.1,29.89,WSW,248,0.0,0.4,77,0.00,,,0.13,WUHU216HW,2013-09-12 23:59:00,
2013-09-12 20:04:00,82.6,74.7,29.90,NNE,23,1.8,2.7,77,0.00,,,0.13,WUHU216HW,2013-09-13 00:04:00,
2013-09-12 20:09:00,81.7,73.8,29.90,NNW,338,2.9,3.4,77,0.00,,,0.13,WUHU216HW,2013-09-13 00:09:00,
2013-09-12 20:14:00,81.0,72.7,29.90,NNW,338,4.3,4.3,76,0.00,,,0.13,WUHU216HW,2013-09-13 00:14:00,
2013-09-12 20:19:00,80.3,72.0,29.91,SE,135,4.5,5.4,76,0.00,,,0.13,WUHU216HW,2013-09-13 00:19:00,
2013-09-12 20:24:00,79.4,71.9,29.91,ENE,68,4.9,5.4,78,0.00,,,0.13,WUHU216HW,2013-09-13 00:24:00,
2013-09-12 20:29:00,78.8,71.4,29.92,NNW,338,4.7,7.6,78,0.00,,,0.13,WUHU216HW,2013-09-13 00:29:00,
2013-09-12 20:35:00,78.5,71.0,29.92,NNE,23,1.8,7.6,78,0.00,,,0.13,WUHU216HW,2013-09-13 00:35:00,
2013-09-12 20:40:00,78.3,70.8,29.92,NE,45,2.9,2.9,78,0.00,,,0.13,WUHU216HW,2013-09-13 00:40:00,
2013-09-12 20:45:00,78.1,70.7,29.92,North,0,1.8,3.8,78,0.00,,,0.13,WUHU216HW,2013-09-13 00:45:00,
2013-09-12 20:50:00,78.1,70.7,29.92,NNE,23,2.0,4.0,78,0.00,,,0.13,WUHU216HW,2013-09-13 00:50:00,
2013-09-12 20:55:00,78.1,70.7,29.92,NE,45,2.2,4.0,78,0.00,,,0.13,WUHU216HW,2013-09-13 00:55:00,
2013-09-12 21:00:00,77.9,70.5,29.92,NNE,23,2.0,4.0,78,0.00,,,0.13,WUHU216HW,2013-09-13 01:00:00,
2013-09-12 21:05:00,77.9,70.5,29.92,ENE,68,1.6,4.0,78,0.00,,,0.13,WUHU216HW,2013-09-13 01:05:00,
2013-09-12 21:10:00,77.8,70.3,29.92,ENE,68,1.1,2.2,78,0.00,,,0.13,WUHU216HW,2013-09-13 01:10:00,
2013-09-12 21:15:00,77.8,70.3,29.91,NE,45,0.0,2.2,78,0.00,,,0.13,WUHU216HW,2013-09-13 01:15:00,
2013-09-12 21:20:00,77.9,70.5,29.91,ESE,113,1.8,1.8,78,0.00,,,0.13,WUHU216HW,2013-09-13 01:20:00,
2013-09-12 21:25:00,78.1,70.7,29.91,ENE,68,1.3,2.0,78,0.00,,,0.13,WUHU216HW,2013-09-13 01:25:00,
2013-09-12 21:35:00,78.3,70.8,29.91,East,90,0.0,1.3,78,0.00,,,0.13,WUHU216HW,2013-09-13 01:35:00,
2013-09-12 21:40:00,78.5,71.0,29.91,West,270,0.4,0.4,78,0.00,,,0.13,WUHU216HW,2013-09-13 01:40:00,
2013-09-12 21:45:00,78.7,71.2,29.91,East,90,0.0,0.7,78,0.00,,,0.13,WUHU216HW,2013-09-13 01:45:00,
2013-09-12 21:50:00,78.7,71.2,29.91,NNE,23,0.0,1.1,78,0.00,,,0.13,WUHU216HW,2013-09-13 01:50:00,
2013-09-12 21:55:00,78.7,71.2,29.91,ENE,68,0.0,1.1,78,0.00,,,0.13,WUHU216HW,2013-09-13 01:55:00,
2013-09-12 22:00:00,78.8,71.4,29.91,ENE,68,0.2,0.9,78,0.00,,,0.13,WUHU216HW,2013-09-13 02:00:00,
2013-09-12 22:05:00,78.8,71.4,29.91,ENE,68,0.4,0.4,78,0.00,,,0.13,WUHU216HW,2013-09-13 02:05:00,
2013-09-12 22:10:00,78.8,71.4,29.91,ESE,113,0.2,0.7,78,0.00,,,0.13,WUHU216HW,2013-09-13 02:10:00,
2013-09-12 22:15:00,78.8,71.4,29.90,ESE,113,0.0,0.7,78,0.00,,,0.13,WUHU216HW,2013-09-13 02:15:00,
2013-09-12 22:21:00,78.8,71.4,29.90,ESE,113,0.0,0.4,78,0.00,,,0.13,WUHU216HW,2013-09-13 02:21:00,
2013-09-12 22:26:00,78.8,71.4,29.90,ESE,113,0.2,0.4,78,0.00,,,0.13,WUHU216HW,2013-09-13 02:26:00,
2013-09-12 22:31:00,78.8,71.4,29.89,ESE,113,0.2,0.4,78,0.00,,,0.13,WUHU216HW,2013-09-13 02:31:00,
2013-09-12 22:36:00,78.7,71.2,29.89,ESE,113,0.0,0.4,78,0.00,,,0.13,WUHU216HW,2013-09-13 02:36:00,
2013-09-12 22:41:00,78.5,71.0,29.89,ESE,113,0.0,0.0,78,0.00,,,0.13,WUHU216HW,2013-09-13 02:41:00,
2013-09-12 22:46:00,78.5,71.0,29.89,ESE,113,0.0,0.0,78,0.00,,,0.13,WUHU216HW,2013-09-13 02:46:00,
2013-09-12 22:51:00,78.5,71.0,29.89,ESE,113,0.0,0.0,78,0.00,,,0.13,WUHU216HW,2013-09-13 02:51:00,
2013-09-12 22:56:00,78.5,71.0,29.89,ESE,113,0.0,0.0,78,0.00,,,0.13,WUHU216HW,2013-09-13 02:56:00,
2013-09-12 23:01:00,78.3,70.8,29.89,ESE,113,0.0,0.4,78,0.00,,,0.13,WUHU216HW,2013-09-13 03:01:00,
2013-09-12 23:06:00,78.3,70.8,29.89,ESE,113,0.0,0.4,78,0.00,,,0.13,WUHU216HW,2013-09-13 03:06:00,
2013-09-12 23:07:00,78.3,70.8,29.89,ESE,113,0.0,0.0,78,0.00,,,0.13,WUHU216HW,2013-09-13 03:07:00,
2013-09-12 23:11:00,78.3,70.8,29.89,ESE,113,0.0,0.0,78,0.00,,,0.13,WUHU216HW,2013-09-13 03:11:00,
2013-09-12 23:17:00,78.3,70.8,29.89,ESE,113,0.0,0.0,78,0.00,,,0.13,WUHU216HW,2013-09-13 03:17:00,
2013-09-12 23:38:00,78.1,70.7,29.89,ESE,113,0.0,0.0,78,0.00,,,0.13,WUHU216HW,2013-09-13 03:38:00,
2013-09-12 23:43:00,78.1,70.7,29.89,ESE,113,0.4,0.4,78,0.00,,,0.13,WUHU216HW,2013-09-13 03:43:00,
2013-09-12 23:48:00,77.9,70.5,29.89,ESE,113,0.0,0.7,78,0.00,,,0.13,WUHU216HW,2013-09-13 03:48:00,
2013-09-12 23:53:00,77.9,70.5,29.88,ESE,113,0.0,0.7,78,0.00,,,0.13,WUHU216HW,2013-09-13 03:53:00,
2013-09-12 23:58:00,77.8,70.3,29.88,ESE,113,0.0,0.4,78,0.00,,,0.13,WUHU216HW,2013-09-13 03:58:00,